Pagrindinis puslapis
METAR-TAF:

METAR-TAF

Oro uostai :

Turino oro uostas

Turinas, Italija

platuma: 45-13N, ilguma: 007-39E, Aukštis: 301 m

Dabartinis oras

Ataskaita buvo paskelbta 25 minutes, ne 22:50 UTC
Vėjas 5 kt iš Šiaurės Vakarų
Temperatūra 14°C
Drėgmė 36%
Slėgis 1029 hPa
Matomumas 10 km arba daugiau

METAR: LIMF 072250Z AUTO 31005KT 9999 NCD 14/M01 Q1029

Laikas: 01:15 (23:15 UTC)

Prognozė

Ataskaita buvo paskelbta 6 valandos ir 15 minutes, ne 17:00 UTC
Prognozė galioja nuo 07 metu 18 UTC su 08 metu 18 UTC
Vėjas 5 kt nuo kintamojo kryptimis
Matomumas 10 km arba daugiau
nėra debesų žemiau 1500 m ir nėra kamuolinių lietaus debesų

TAF: LIMF 071700Z 0718/0818 VRB05KT CAVOK

Orai ataskaitas ir orų prognozės (METAR, TAF).

turimą stotys yra geltonos ir raudonos taškus žemėlapyje.

Perkelti pele per norėdami pamatyti stoties vardą.

Tada spustelėkite, norėdami matyti oro stebėjimo ir prognozės.

Norėdami pakeisti žemėlapį: spustelėkite ant žalios mygtukų su juodo kryžiaus žemyn,; žalią mygtuką su brūkšneliu, jei norite nutolinti; arba žalių rodyklių gretimoms žemėlapius.


METAR-TAF: